createdAt,value
2022-09-14T00:01:21.251Z,75.65
2022-09-14T00:03:45.625Z,75.47
2022-09-14T00:06:14.438Z,75.30
2022-09-14T00:08:42.013Z,75.09
2022-09-14T00:11:12.848Z,74.98
2022-09-14T00:13:41.443Z,75.03
2022-09-14T00:16:20.636Z,75.00
2022-09-14T00:18:55.699Z,74.97
2022-09-14T00:21:23.375Z,74.97
2022-09-14T00:23:50.515Z,74.93
2022-09-14T00:26:19.402Z,74.85
2022-09-14T00:28:51.082Z,74.96
2022-09-14T00:31:18.774Z,75.24
2022-09-14T00:33:51.500Z,75.63
2022-09-14T00:36:19.481Z,75.89
2022-09-14T00:38:47.062Z,75.99
2022-09-14T00:41:19.092Z,76.02
2022-09-14T00:44:00.990Z,75.99
2022-09-14T00:46:30.144Z,76.04
2022-09-14T00:48:59.694Z,76.00
2022-09-14T00:51:27.966Z,75.96
2022-09-14T00:53:55.522Z,75.73
2022-09-14T00:56:22.588Z,75.68
2022-09-14T00:58:50.533Z,75.66
2022-09-14T01:01:17.747Z,75.60
2022-09-14T01:03:44.900Z,75.89
2022-09-14T01:06:31.559Z,76.15
2022-09-14T01:09:32.804Z,76.24
2022-09-14T01:12:15.845Z,76.14
2022-09-14T01:14:49.014Z,75.89
2022-09-14T01:17:23.026Z,76.06
2022-09-14T01:20:17.717Z,76.27
2022-09-14T01:23:04.168Z,76.41
2022-09-14T01:25:37.826Z,76.56
2022-09-14T01:28:10.102Z,76.52
2022-09-14T01:30:37.043Z,76.30
2022-09-14T01:33:16.595Z,76.22
2022-09-14T01:35:49.563Z,76.32
2022-09-14T01:38:41.293Z,76.26
2022-09-14T01:41:10.693Z,76.21
2022-09-14T01:43:43.253Z,76.16
2022-09-14T01:46:10.362Z,76.19
2022-09-14T01:48:43.158Z,75.98
2022-09-14T01:51:12.932Z,76.01
2022-09-14T01:54:19.910Z,76.04
2022-09-14T01:56:54.320Z,76.24
2022-09-14T01:59:24.475Z,76.28
2022-09-14T02:01:56.558Z,76.28
2022-09-14T02:04:36.881Z,76.10
2022-09-14T02:07:04.000Z,75.94
2022-09-14T02:09:31.069Z,75.99
2022-09-14T02:12:00.991Z,76.12
2022-09-14T02:14:28.122Z,76.16
2022-09-14T02:16:55.261Z,76.18
2022-09-14T02:19:23.912Z,76.10
2022-09-14T02:21:51.400Z,75.99
2022-09-14T02:24:18.653Z,75.80
2022-09-14T02:26:46.037Z,75.87
2022-09-14T02:29:13.167Z,75.93
2022-09-14T02:32:02.323Z,76.02
2022-09-14T02:34:57.635Z,76.30
2022-09-14T02:37:28.366Z,76.05
2022-09-14T02:40:10.950Z,76.02
2022-09-14T02:42:44.090Z,75.95
2022-09-14T02:45:29.957Z,75.99
2022-09-14T02:48:12.774Z,76.06
2022-09-14T02:50:58.574Z,76.12
2022-09-14T02:53:36.667Z,76.25
2022-09-14T02:56:08.118Z,76.14
2022-09-14T02:58:36.801Z,76.11
2022-09-14T03:01:04.788Z,76.09
2022-09-14T03:03:35.441Z,75.97
2022-09-14T03:06:03.273Z,76.03
2022-09-14T03:08:30.416Z,76.12
2022-09-14T03:10:57.467Z,76.20
2022-09-14T03:13:24.921Z,76.13
2022-09-14T03:15:52.450Z,76.18
2022-09-14T03:18:19.739Z,76.31
2022-09-14T03:20:46.887Z,76.63
2022-09-14T03:23:14.544Z,76.96
2022-09-14T03:25:44.954Z,77.34
2022-09-14T03:28:12.347Z,77.80
2022-09-14T03:30:39.684Z,78.05
2022-09-14T03:33:06.740Z,78.43
2022-09-14T03:35:36.527Z,78.92
2022-09-14T03:38:03.893Z,79.08
2022-09-14T03:40:31.106Z,79.23
2022-09-14T03:42:58.334Z,79.24
2022-09-14T03:45:25.482Z,79.02
2022-09-14T03:47:52.556Z,79.22
2022-09-14T03:50:20.159Z,79.33
2022-09-14T03:52:47.335Z,79.19
2022-09-14T03:55:14.348Z,78.89
2022-09-14T03:57:41.395Z,78.73
2022-09-14T04:00:09.265Z,78.56
2022-09-14T04:02:40.163Z,78.49
2022-09-14T04:05:07.867Z,78.51
2022-09-14T04:07:35.012Z,78.26
2022-09-14T04:10:05.984Z,77.92
2022-09-14T04:12:37.226Z,77.71
2022-09-14T04:15:08.024Z,77.66
2022-09-14T04:17:35.490Z,77.50
2022-09-14T04:20:03.150Z,77.47
2022-09-14T04:22:30.302Z,77.44
2022-09-14T04:24:57.355Z,77.32
2022-09-14T04:30:06.309Z,77.45
2022-09-14T04:32:34.520Z,77.67
2022-09-14T04:35:02.033Z,77.96
2022-09-14T04:37:31.441Z,78.09
2022-09-14T04:39:58.770Z,78.04
2022-09-14T04:42:25.930Z,77.92
2022-09-14T04:44:52.982Z,77.93
2022-09-14T04:47:20.028Z,78.08
2022-09-14T04:49:47.124Z,78.38
2022-09-14T04:52:14.150Z,78.66
2022-09-14T04:54:41.197Z,78.83
2022-09-14T04:57:08.347Z,79.23
2022-09-14T04:59:35.366Z,79.66
2022-09-14T05:02:02.465Z,79.96
2022-09-14T05:04:29.558Z,80.16
2022-09-14T05:06:56.730Z,80.09
2022-09-14T05:09:23.860Z,79.98
2022-09-14T05:11:52.042Z,79.92
2022-09-14T05:14:19.178Z,80.00
2022-09-14T05:16:48.364Z,79.98
2022-09-14T05:19:17.674Z,79.81
2022-09-14T05:21:44.826Z,79.89
2022-09-14T05:24:17.390Z,79.98
2022-09-14T05:26:45.175Z,80.24
2022-09-14T05:29:13.672Z,80.16
2022-09-14T05:31:40.851Z,79.86
2022-09-14T05:34:09.892Z,79.82
2022-09-14T05:36:37.965Z,79.86
2022-09-14T05:39:06.051Z,79.65
2022-09-14T05:41:33.082Z,78.83
2022-09-14T05:44:00.233Z,77.72
2022-09-14T05:46:27.364Z,76.56
2022-09-14T05:48:54.835Z,76.54
2022-09-14T05:51:23.317Z,76.18
2022-09-14T05:53:53.248Z,76.18
2022-09-14T05:56:21.207Z,76.28
2022-09-14T05:58:48.701Z,76.31
2022-09-14T06:01:23.852Z,74.24
2022-09-14T06:03:54.017Z,73.01
2022-09-14T06:06:21.267Z,71.53
2022-09-14T06:08:52.515Z,70.98
2022-09-14T06:11:25.092Z,69.96
2022-09-14T06:13:52.563Z,68.07
2022-09-14T06:16:20.416Z,66.31
2022-09-14T06:18:47.908Z,65.24
2022-09-14T06:21:16.975Z,63.95
2022-09-14T06:23:44.419Z,63.18
2022-09-14T06:26:11.676Z,63.18
2022-09-14T06:28:38.823Z,63.49
2022-09-14T06:31:07.864Z,62.66
2022-09-14T06:33:35.284Z,61.33
2022-09-14T06:36:12.363Z,61.52
2022-09-14T06:38:40.620Z,62.79
2022-09-14T06:41:09.533Z,62.02
2022-09-14T06:43:39.231Z,61.16
2022-09-14T06:46:21.856Z,60.12
2022-09-14T06:48:51.040Z,60.49
2022-09-14T06:51:24.387Z,59.53
2022-09-14T06:53:51.895Z,59.60
2022-09-14T06:56:19.046Z,57.78
2022-09-14T06:58:46.241Z,57.62
2022-09-14T07:01:15.932Z,56.37
2022-09-14T07:03:47.397Z,55.63
2022-09-14T07:06:21.169Z,55.12
2022-09-14T07:08:48.747Z,54.09
2022-09-14T07:11:19.041Z,53.84
2022-09-14T07:13:46.493Z,53.03
2022-09-14T07:16:14.159Z,52.21
2022-09-14T07:18:41.645Z,51.81
2022-09-14T07:21:17.600Z,51.12
2022-09-14T07:23:45.745Z,49.94
2022-09-14T07:26:16.685Z,49.55
2022-09-14T07:28:45.717Z,47.80
2022-09-14T07:31:21.737Z,47.18
2022-09-14T07:33:49.248Z,46.52
2022-09-14T07:36:16.862Z,46.09
2022-09-14T07:38:53.146Z,45.39
2022-09-14T07:41:21.598Z,44.69
2022-09-14T07:43:51.635Z,44.19
2022-09-14T07:46:19.469Z,44.61
2022-09-14T07:48:47.448Z,44.54
2022-09-14T07:51:14.909Z,44.49
2022-09-14T07:53:43.298Z,44.19
2022-09-14T07:56:11.367Z,43.95
2022-09-14T07:58:38.824Z,43.62
2022-09-14T08:01:09.335Z,43.71
2022-09-14T08:03:36.598Z,44.18
2022-09-14T08:06:09.036Z,45.15
2022-09-14T08:08:37.451Z,44.38
2022-09-14T08:11:15.595Z,44.10
2022-09-14T08:13:46.391Z,42.65
2022-09-14T08:16:13.505Z,41.90
2022-09-14T08:18:40.680Z,41.75
2022-09-14T08:21:10.421Z,42.45
2022-09-14T08:23:37.855Z,42.37
2022-09-14T08:26:10.437Z,41.83
2022-09-14T08:28:38.813Z,40.19
2022-09-14T08:31:21.305Z,39.54
2022-09-14T08:33:49.699Z,38.20
2022-09-14T08:36:18.385Z,37.58
2022-09-14T08:38:45.455Z,36.73
2022-09-14T08:41:26.449Z,35.97
2022-09-14T08:43:53.830Z,36.11
2022-09-14T08:46:31.149Z,36.33
2022-09-14T08:48:58.402Z,36.68
2022-09-14T08:51:25.474Z,37.04
2022-09-14T08:53:52.907Z,36.12
2022-09-14T08:56:23.695Z,35.34
2022-09-14T08:59:00.526Z,34.81
2022-09-14T09:01:46.422Z,34.99
2022-09-14T09:04:32.599Z,34.97
2022-09-14T09:07:11.631Z,34.85
2022-09-14T09:09:40.828Z,34.36
2022-09-14T09:12:12.380Z,33.91
2022-09-14T09:14:41.578Z,33.90
2022-09-14T09:17:15.791Z,33.11
2022-09-14T09:20:10.015Z,32.68
2022-09-14T09:23:08.182Z,33.08
2022-09-14T09:25:56.916Z,32.38
2022-09-14T09:28:26.540Z,31.08
2022-09-14T09:30:54.278Z,31.25
2022-09-14T09:33:24.746Z,31.39
2022-09-14T09:36:15.510Z,31.40
2022-09-14T09:38:42.666Z,31.97
2022-09-14T09:41:27.422Z,33.05
2022-09-14T09:43:59.491Z,33.44
2022-09-14T09:46:38.188Z,33.60
2022-09-14T09:49:19.284Z,33.32
2022-09-14T09:51:46.537Z,32.89
2022-09-14T09:54:19.760Z,32.53
2022-09-14T09:56:57.345Z,32.56
2022-09-14T09:59:35.736Z,32.34
2022-09-14T10:02:29.393Z,32.51
2022-09-14T10:05:10.374Z,32.84
2022-09-14T10:07:58.828Z,33.06
2022-09-14T10:10:40.425Z,33.59
2022-09-14T10:13:18.113Z,33.47
2022-09-14T10:15:49.245Z,33.71
2022-09-14T10:18:18.556Z,34.22
2022-09-14T10:21:09.741Z,34.86
2022-09-14T10:23:38.354Z,35.47
2022-09-14T10:26:14.539Z,34.63
2022-09-14T10:28:48.639Z,33.74
2022-09-14T10:31:20.897Z,33.76
2022-09-14T10:33:53.986Z,34.14
2022-09-14T10:36:29.900Z,34.24
2022-09-14T10:39:00.779Z,33.73
2022-09-14T10:41:40.170Z,33.55
2022-09-14T10:44:21.805Z,33.34
2022-09-14T10:47:10.009Z,33.59
2022-09-14T10:50:15.710Z,33.18
2022-09-14T10:53:29.242Z,33.97
2022-09-14T10:56:20.247Z,33.83
2022-09-14T10:59:02.144Z,34.32
2022-09-14T11:01:51.493Z,34.33
2022-09-14T11:04:49.644Z,34.33
2022-09-14T11:07:43.902Z,34.55
2022-09-14T11:10:17.125Z,34.86
2022-09-14T11:12:47.145Z,35.45
2022-09-14T11:15:17.160Z,35.69
2022-09-14T11:18:12.919Z,35.54
2022-09-14T11:20:46.558Z,36.37
2022-09-14T11:23:37.869Z,36.10
2022-09-14T11:26:13.999Z,36.60
2022-09-14T11:28:47.832Z,36.96
2022-09-14T11:31:30.746Z,36.90
2022-09-14T11:34:04.937Z,35.93
2022-09-14T11:36:39.844Z,35.73
2022-09-14T11:39:23.934Z,34.89
2022-09-14T11:42:08.574Z,34.69
2022-09-14T11:44:42.832Z,34.61
2022-09-14T11:47:18.639Z,33.86
2022-09-14T11:50:00.851Z,33.36
2022-09-14T11:52:30.206Z,33.10
2022-09-14T11:54:59.663Z,32.81
2022-09-14T11:57:29.195Z,33.32
2022-09-14T12:00:12.695Z,34.16
2022-09-14T12:02:44.321Z,33.85
2022-09-14T12:05:11.604Z,34.94
2022-09-14T12:07:47.868Z,35.44
2022-09-14T12:10:19.239Z,35.22
2022-09-14T12:13:17.641Z,34.47
2022-09-14T12:15:45.458Z,33.68
2022-09-14T12:18:22.848Z,33.47
2022-09-14T12:21:00.546Z,33.60
2022-09-14T12:23:40.088Z,34.39
2022-09-14T12:26:12.970Z,33.60
2022-09-14T12:28:48.439Z,33.80
2022-09-14T12:31:49.969Z,33.21
2022-09-14T12:34:24.184Z,33.55
2022-09-14T12:36:51.232Z,33.47
2022-09-14T12:39:24.061Z,33.83
2022-09-14T12:41:51.067Z,34.22
2022-09-14T12:44:36.984Z,34.46
2022-09-14T12:47:26.153Z,34.99
2022-09-14T12:49:58.059Z,35.90
2022-09-14T12:52:33.322Z,36.30
2022-09-14T12:55:06.679Z,36.49
2022-09-14T12:57:57.518Z,36.60
2022-09-14T13:00:27.019Z,36.97
2022-09-14T13:03:21.714Z,37.40
2022-09-14T13:05:49.094Z,37.57
2022-09-14T13:08:20.625Z,38.11
2022-09-14T13:10:48.181Z,38.43
2022-09-14T13:13:20.873Z,38.39
2022-09-14T13:15:52.684Z,38.36
2022-09-14T13:18:19.814Z,38.97
2022-09-14T13:20:57.174Z,39.17
2022-09-14T13:23:41.775Z,39.06
2022-09-14T13:26:34.465Z,39.49
2022-09-14T13:29:01.949Z,39.90
2022-09-14T13:31:32.249Z,40.18
2022-09-14T13:33:59.395Z,40.09
2022-09-14T13:36:28.520Z,40.55
2022-09-14T13:38:55.951Z,40.50
2022-09-14T13:41:23.148Z,40.44
2022-09-14T13:43:52.521Z,40.70
2022-09-14T13:46:20.596Z,41.37
2022-09-14T13:48:48.088Z,41.73
2022-09-14T13:51:15.135Z,42.13
2022-09-14T13:53:49.994Z,43.02
2022-09-14T13:56:33.545Z,43.14
2022-09-14T13:59:12.681Z,42.92
2022-09-14T14:01:41.394Z,43.11
2022-09-14T14:04:23.866Z,43.50
2022-09-14T14:07:12.522Z,44.40
2022-09-14T14:09:53.007Z,45.08
2022-09-14T14:12:27.330Z,46.22
2022-09-14T14:15:02.551Z,46.15
2022-09-14T14:17:29.521Z,45.93
2022-09-14T14:19:58.470Z,46.50
2022-09-14T14:22:25.560Z,46.80
2022-09-14T14:27:44.765Z,46.09
2022-09-14T14:30:20.844Z,46.77
2022-09-14T14:32:55.205Z,46.89
2022-09-14T14:35:50.041Z,46.57
2022-09-14T14:38:18.900Z,47.40
2022-09-14T14:40:55.608Z,47.13
2022-09-14T14:43:52.751Z,47.08
2022-09-14T14:46:20.276Z,47.21
2022-09-14T14:48:57.127Z,47.12
2022-09-14T14:55:54.529Z,48.61
2022-09-14T14:58:22.172Z,49.67
2022-09-14T15:01:10.833Z,50.69
2022-09-14T15:03:40.400Z,51.95
2022-09-14T15:06:16.113Z,52.43
2022-09-14T15:08:43.494Z,53.17
2022-09-14T15:11:18.194Z,53.21
2022-09-14T15:13:46.275Z,53.73
2022-09-14T15:16:14.174Z,54.22
2022-09-14T15:18:41.586Z,54.91
2022-09-14T15:21:08.837Z,55.60
2022-09-14T15:23:35.998Z,56.74
2022-09-14T15:26:03.134Z,57.56
2022-09-14T15:28:31.103Z,57.83
2022-09-14T15:30:58.664Z,58.59
2022-09-14T15:33:25.712Z,58.78
2022-09-14T15:35:57.060Z,60.03
2022-09-14T15:38:24.614Z,60.38
2022-09-14T15:40:51.661Z,60.79
2022-09-14T15:43:18.736Z,61.96
2022-09-14T15:45:45.905Z,62.71
2022-09-14T15:48:14.964Z,63.67
2022-09-14T15:50:44.049Z,64.20
2022-09-14T15:53:12.315Z,64.99
2022-09-14T15:55:41.148Z,65.40
2022-09-14T15:58:13.283Z,65.85
2022-09-14T16:00:43.183Z,66.14
2022-09-14T16:03:10.265Z,66.70
2022-09-14T16:05:38.920Z,67.21
2022-09-14T16:08:06.078Z,67.34
2022-09-14T16:10:33.229Z,67.53
2022-09-14T16:13:00.583Z,67.88
2022-09-14T16:15:27.631Z,68.20
2022-09-14T16:17:55.778Z,68.17
2022-09-14T16:20:22.869Z,68.46
2022-09-14T16:22:50.202Z,68.82
2022-09-14T16:25:17.357Z,68.82
2022-09-14T16:27:45.424Z,68.84
2022-09-14T16:30:13.187Z,69.16
2022-09-14T16:32:40.257Z,69.12
2022-09-14T16:35:08.621Z,69.19
2022-09-14T16:37:35.867Z,69.46
2022-09-14T16:40:03.820Z,69.34
2022-09-14T16:42:30.987Z,69.54
2022-09-14T16:47:38.391Z,69.94
2022-09-14T16:50:05.989Z,70.41
2022-09-14T16:52:35.658Z,70.62
2022-09-14T16:55:02.596Z,70.97
2022-09-14T16:57:30.162Z,71.11
2022-09-14T17:00:06.018Z,71.26
2022-09-14T17:02:33.161Z,71.63
2022-09-14T17:05:00.381Z,71.86
2022-09-14T17:07:27.465Z,71.96
2022-09-14T17:09:54.932Z,72.05
2022-09-14T17:12:21.969Z,72.16
2022-09-14T17:14:49.324Z,72.44
2022-09-14T17:17:16.477Z,72.58
2022-09-14T17:19:43.905Z,72.67
2022-09-14T17:22:11.070Z,73.09
2022-09-14T17:24:38.741Z,73.06
2022-09-14T17:27:05.917Z,73.18
2022-09-14T17:29:35.807Z,73.12
2022-09-14T17:32:02.897Z,73.17
2022-09-14T17:34:30.003Z,73.07
2022-09-14T17:36:58.967Z,73.41
2022-09-14T17:39:26.079Z,73.50
2022-09-14T17:41:53.192Z,73.56
2022-09-14T17:44:20.264Z,73.16
2022-09-14T17:46:52.562Z,73.18
2022-09-14T17:49:22.577Z,73.30
2022-09-14T17:51:50.649Z,73.46
2022-09-14T17:54:18.669Z,73.27
2022-09-14T17:56:46.124Z,73.00
2022-09-14T17:59:15.637Z,72.93
2022-09-14T18:01:42.779Z,73.20
2022-09-14T18:04:12.286Z,73.42
2022-09-14T18:06:43.882Z,73.44
2022-09-14T18:09:16.846Z,73.61
2022-09-14T18:11:44.180Z,73.78
2022-09-14T18:14:13.015Z,73.66
2022-09-14T18:16:40.294Z,73.92
2022-09-14T18:19:07.882Z,73.96
2022-09-14T18:21:35.049Z,73.90
2022-09-14T18:24:02.894Z,74.12
2022-09-14T18:26:30.081Z,74.38
2022-09-14T18:29:00.997Z,74.54
2022-09-14T18:31:28.223Z,74.59
2022-09-14T18:33:59.439Z,74.46
2022-09-14T18:36:29.439Z,74.29
2022-09-14T18:38:58.730Z,74.52
2022-09-14T18:41:26.052Z,74.68
2022-09-14T18:43:53.629Z,74.79
2022-09-14T18:46:24.471Z,74.71
2022-09-14T18:48:55.588Z,74.50
2022-09-14T18:51:22.640Z,74.39
2022-09-14T18:53:49.729Z,74.60
2022-09-14T18:56:18.028Z,74.62
2022-09-14T18:58:46.997Z,74.55
2022-09-14T19:01:14.218Z,74.48
2022-09-14T19:03:42.688Z,74.61
2022-09-14T19:06:14.554Z,74.93
2022-09-14T19:08:42.308Z,74.88
2022-09-14T19:11:14.475Z,75.09
2022-09-14T19:13:41.853Z,75.19
2022-09-14T19:16:13.543Z,75.42
2022-09-14T19:18:41.247Z,75.33
2022-09-14T19:21:13.211Z,75.55
2022-09-14T19:23:40.705Z,75.43
2022-09-14T19:26:09.820Z,75.78
2022-09-14T19:28:36.965Z,75.74
2022-09-14T19:31:12.624Z,75.76
2022-09-14T19:33:44.503Z,75.61
2022-09-14T19:36:27.756Z,75.74
2022-09-14T19:38:58.892Z,75.79
2022-09-14T19:41:26.205Z,75.64
2022-09-14T19:43:53.403Z,75.60
2022-09-14T19:46:23.609Z,75.68
2022-09-14T19:48:51.389Z,75.74
2022-09-14T19:51:23.356Z,75.83
2022-09-14T19:53:51.262Z,75.76
2022-09-14T19:56:20.384Z,75.89
2022-09-14T19:58:50.964Z,75.97
2022-09-14T20:01:19.179Z,76.19
2022-09-14T20:03:46.841Z,76.26
2022-09-14T20:06:43.522Z,76.38
2022-09-14T20:09:19.062Z,76.39
2022-09-14T20:11:47.205Z,76.53
2022-09-14T20:14:16.227Z,76.63
2022-09-14T20:16:45.123Z,76.63
2022-09-14T20:19:17.185Z,76.62
2022-09-14T20:24:57.075Z,76.55
2022-09-14T20:27:26.724Z,76.65
2022-09-14T20:30:10.137Z,76.84
2022-09-14T20:32:51.391Z,77.00
2022-09-14T20:35:18.881Z,76.91
2022-09-14T20:37:50.145Z,76.85
2022-09-14T20:40:17.448Z,76.91
2022-09-14T20:42:44.553Z,76.91
2022-09-14T20:45:12.159Z,76.86
2022-09-14T20:47:39.993Z,76.82
2022-09-14T20:50:08.111Z,76.94
2022-09-14T20:52:35.960Z,77.11
2022-09-14T20:55:03.113Z,77.21
2022-09-14T20:57:32.615Z,77.03
2022-09-14T21:00:00.188Z,77.09
2022-09-14T21:02:33.507Z,77.03
2022-09-14T21:05:00.641Z,77.16
2022-09-14T21:07:27.770Z,77.35
2022-09-14T21:09:55.036Z,77.42
2022-09-14T21:12:22.201Z,77.32
2022-09-14T21:14:52.393Z,77.31
2022-09-14T21:17:19.672Z,77.21
2022-09-14T21:22:31.799Z,77.44
2022-09-14T21:24:58.834Z,77.31
2022-09-14T21:27:25.862Z,77.30
2022-09-14T21:29:54.789Z,77.35
2022-09-14T21:32:23.631Z,77.38
2022-09-14T21:34:52.057Z,77.49
2022-09-14T21:37:20.088Z,77.53
2022-09-14T21:39:48.814Z,77.49
2022-09-14T21:42:15.962Z,77.62
2022-09-14T21:44:43.082Z,77.74
2022-09-14T21:47:10.122Z,77.72
2022-09-14T21:49:37.183Z,77.52
2022-09-14T21:52:04.320Z,77.77
2022-09-14T21:54:31.398Z,77.72
2022-09-14T21:56:58.823Z,77.69
2022-09-14T21:59:26.098Z,77.66
2022-09-14T22:01:53.354Z,77.53
2022-09-14T22:04:22.748Z,77.62
2022-09-14T22:06:51.608Z,77.77
2022-09-14T22:09:19.889Z,77.87
2022-09-14T22:11:47.333Z,77.78
2022-09-14T22:14:20.148Z,77.78
2022-09-14T22:16:47.692Z,77.69
2022-09-14T22:19:26.997Z,77.76
2022-09-14T22:21:54.594Z,77.84
2022-09-14T22:24:37.927Z,77.81
2022-09-14T22:27:07.827Z,77.65
2022-09-14T22:29:34.906Z,77.65
2022-09-14T22:32:02.536Z,77.85
2022-09-14T22:34:29.585Z,77.80
2022-09-14T22:36:56.833Z,77.75
2022-09-14T22:39:24.110Z,77.66
2022-09-14T22:41:51.441Z,77.76
2022-09-14T22:44:18.532Z,77.84
2022-09-14T22:46:46.354Z,77.78
2022-09-14T22:49:13.707Z,77.82
2022-09-14T22:51:43.146Z,77.78
2022-09-14T22:54:14.972Z,77.81
2022-09-14T22:56:42.016Z,77.90
2022-09-14T22:59:09.884Z,77.99
2022-09-14T23:01:39.984Z,77.97
2022-09-14T23:04:09.346Z,77.93
2022-09-14T23:06:38.880Z,77.92
2022-09-14T23:09:06.879Z,78.04
2022-09-14T23:11:33.832Z,78.14
2022-09-14T23:14:00.972Z,78.15
2022-09-14T23:16:29.630Z,78.16
2022-09-14T23:19:02.650Z,78.31
2022-09-14T23:21:31.225Z,78.25
2022-09-14T23:24:04.110Z,78.38
2022-09-14T23:26:31.574Z,78.55
2022-09-14T23:29:00.474Z,78.52
2022-09-14T23:31:30.276Z,78.52
2022-09-14T23:33:59.315Z,78.62
2022-09-14T23:36:26.517Z,78.78
2022-09-14T23:38:53.564Z,78.68
2022-09-14T23:41:22.147Z,78.65
2022-09-14T23:43:49.538Z,78.67
2022-09-14T23:46:17.427Z,78.67
2022-09-14T23:48:44.620Z,78.77
2022-09-14T23:51:12.184Z,78.82
2022-09-14T23:53:39.375Z,78.70
2022-09-14T23:56:06.788Z,78.57
2022-09-14T23:58:33.834Z,78.80
